createdAt,value
2022-08-05T00:00:21.980Z,22.13
2022-08-05T00:02:52.416Z,22.23
2022-08-05T00:06:02.133Z,22.42
2022-08-05T00:08:32.827Z,22.31
2022-08-05T00:11:23.932Z,22.43
2022-08-05T00:13:57.803Z,22.10
2022-08-05T00:16:35.443Z,22.26
2022-08-05T00:19:07.548Z,22.21
2022-08-05T00:21:37.483Z,22.26
2022-08-05T00:24:16.164Z,22.21
2022-08-05T00:26:50.865Z,21.88
2022-08-05T00:29:22.714Z,22.11
2022-08-05T00:32:12.634Z,22.36
2022-08-05T00:35:04.759Z,22.32
2022-08-05T00:37:35.856Z,21.97
2022-08-05T00:40:29.345Z,22.38
2022-08-05T00:43:00.704Z,22.20
2022-08-05T00:45:38.547Z,22.25
2022-08-05T00:48:10.756Z,22.36
2022-08-05T00:50:44.165Z,22.32
2022-08-05T00:54:00.820Z,22.20
2022-08-05T00:56:09.250Z,21.99
2022-08-05T00:58:42.406Z,22.37
2022-08-05T01:01:16.232Z,22.04
2022-08-05T01:04:14.175Z,22.34
2022-08-05T01:06:48.525Z,22.24
2022-08-05T01:09:19.973Z,22.40
2022-08-05T01:11:56.364Z,22.22
2022-08-05T01:14:33.385Z,21.89
2022-08-05T01:17:07.827Z,21.89
2022-08-05T01:20:00.754Z,22.29
2022-08-05T01:22:46.955Z,22.40
2022-08-05T01:25:53.204Z,22.01
2022-08-05T01:28:39.511Z,22.43
2022-08-05T01:31:13.619Z,22.36
2022-08-05T01:33:57.463Z,22.38
2022-08-05T01:36:34.093Z,22.31
2022-08-05T01:39:04.921Z,22.04
2022-08-05T01:41:40.331Z,22.03
2022-08-05T01:44:18.241Z,21.82
2022-08-05T01:46:49.074Z,21.86
2022-08-05T01:49:25.921Z,21.62
2022-08-05T01:52:17.882Z,21.82
2022-08-05T01:54:52.753Z,21.98
2022-08-05T01:58:10.297Z,22.10
2022-08-05T02:00:30.511Z,22.20
2022-08-05T02:03:06.732Z,21.92
2022-08-05T02:05:59.800Z,22.16
2022-08-05T02:08:33.368Z,21.90
2022-08-05T02:11:11.758Z,21.62
2022-08-05T02:13:53.674Z,21.85
2022-08-05T02:16:29.981Z,21.69
2022-08-05T02:19:07.232Z,21.45
2022-08-05T02:21:46.653Z,21.96
2022-08-05T02:24:23.454Z,21.75
2022-08-05T02:26:57.809Z,21.98
2022-08-05T02:29:59.724Z,22.13
2022-08-05T02:32:30.564Z,22.15
2022-08-05T02:35:13.685Z,22.18
2022-08-05T02:37:47.794Z,22.22
2022-08-05T02:40:26.121Z,22.17
2022-08-05T02:42:59.164Z,22.19
2022-08-05T02:45:51.520Z,22.10
2022-08-05T02:48:29.517Z,22.16
2022-08-05T02:51:01.453Z,22.09
2022-08-05T02:53:39.480Z,22.09
2022-08-05T02:56:16.098Z,22.01
2022-08-05T02:58:52.643Z,21.86
2022-08-05T03:01:26.986Z,21.80
2022-08-05T03:04:11.988Z,21.36
2022-08-05T03:06:55.815Z,21.21
2022-08-05T03:09:38.181Z,21.15
2022-08-05T03:12:09.726Z,21.10
2022-08-05T03:14:46.117Z,21.22
2022-08-05T03:17:17.776Z,21.06
2022-08-05T03:19:52.541Z,21.38
2022-08-05T03:22:31.888Z,21.42
2022-08-05T03:25:34.014Z,21.59
2022-08-05T03:27:59.980Z,21.66
2022-08-05T03:30:34.217Z,21.65
2022-08-05T03:33:05.945Z,21.74
2022-08-05T03:35:40.945Z,21.76
2022-08-05T03:38:14.412Z,21.70
2022-08-05T03:40:45.158Z,21.73
2022-08-05T03:44:08.433Z,21.80
2022-08-05T03:46:08.443Z,21.78
2022-08-05T03:48:38.161Z,21.82
2022-08-05T03:52:35.120Z,21.87
2022-08-05T03:55:51.092Z,21.81
2022-08-05T03:57:02.362Z,21.84
2022-08-05T03:59:54.982Z,21.94
2022-08-05T04:02:39.140Z,21.90
2022-08-05T04:05:19.736Z,21.74
2022-08-05T04:07:57.978Z,21.75
2022-08-05T04:10:37.136Z,21.68
2022-08-05T04:13:09.176Z,21.34
2022-08-05T04:15:39.455Z,21.27
2022-08-05T04:18:29.542Z,21.21
2022-08-05T04:21:00.876Z,21.26
2022-08-05T04:23:58.368Z,20.86
2022-08-05T04:26:23.669Z,21.02
2022-08-05T04:28:53.443Z,21.03
2022-08-05T04:31:23.513Z,21.02
2022-08-05T04:34:31.522Z,21.12
2022-08-05T04:36:50.052Z,21.16
2022-08-05T04:39:23.554Z,21.26
2022-08-05T04:41:53.783Z,21.16
2022-08-05T04:44:30.111Z,21.31
2022-08-05T04:47:09.589Z,21.36
2022-08-05T04:50:01.413Z,21.14
2022-08-05T04:52:33.362Z,21.44
2022-08-05T04:55:14.981Z,21.47
2022-08-05T04:57:51.664Z,21.38
2022-08-05T05:00:24.321Z,21.40
2022-08-05T05:02:54.492Z,21.38
2022-08-05T05:05:28.585Z,21.35
2022-08-05T05:08:03.301Z,21.23
2022-08-05T05:10:42.240Z,21.25
2022-08-05T05:13:25.792Z,21.28
2022-08-05T05:16:05.913Z,21.25
2022-08-05T05:18:37.928Z,21.10
2022-08-05T05:21:07.927Z,21.17
2022-08-05T05:24:04.100Z,21.32
2022-08-05T05:26:33.883Z,21.40
2022-08-05T05:29:14.313Z,21.34
2022-08-05T05:31:46.483Z,21.42
2022-08-05T05:34:21.168Z,21.62
2022-08-05T05:36:53.682Z,21.61
2022-08-05T05:39:24.943Z,21.63
2022-08-05T05:42:04.077Z,21.58
2022-08-05T05:44:37.543Z,21.50
2022-08-05T05:47:21.590Z,21.49
2022-08-05T05:50:01.450Z,21.35
2022-08-05T05:52:34.733Z,21.08
2022-08-05T05:55:13.887Z,21.15
2022-08-05T05:57:52.122Z,21.33
2022-08-05T06:00:31.490Z,21.35
2022-08-05T06:03:39.695Z,21.17
2022-08-05T06:05:55.669Z,21.30
2022-08-05T06:08:32.253Z,21.46
2022-08-05T06:11:04.050Z,21.45
2022-08-05T06:13:40.531Z,21.48
2022-08-05T06:16:30.493Z,21.37
2022-08-05T06:19:05.773Z,21.18
2022-08-05T06:21:38.842Z,21.11
2022-08-05T06:24:14.740Z,21.12
2022-08-05T06:26:51.571Z,20.90
2022-08-05T06:29:48.914Z,20.98
2022-08-05T06:32:21.468Z,21.01
2022-08-05T06:34:58.518Z,21.05
2022-08-05T06:37:57.728Z,21.01
2022-08-05T06:40:27.884Z,20.82
2022-08-05T06:43:02.326Z,20.42
2022-08-05T06:45:44.981Z,20.79
2022-08-05T06:48:52.920Z,20.32
2022-08-05T06:51:26.738Z,20.69
2022-08-05T06:54:01.926Z,20.67
2022-08-05T06:56:34.319Z,20.50
2022-08-05T06:59:08.323Z,19.96
2022-08-05T07:01:47.453Z,19.92
2022-08-05T07:04:23.977Z,19.90
2022-08-05T07:06:57.119Z,19.75
2022-08-05T07:09:32.192Z,19.55
2022-08-05T07:12:02.622Z,19.78
2022-08-05T07:14:46.109Z,19.73
2022-08-05T07:18:09.381Z,19.54
2022-08-05T07:20:32.301Z,19.88
2022-08-05T07:23:01.495Z,19.87
2022-08-05T07:25:55.229Z,19.95
2022-08-05T07:28:26.403Z,19.97
2022-08-05T07:30:56.431Z,19.94
2022-08-05T07:33:35.222Z,20.00
2022-08-05T07:36:20.814Z,19.80
2022-08-05T07:38:55.017Z,19.87
2022-08-05T07:42:13.252Z,20.34
2022-08-05T07:44:19.124Z,20.10
2022-08-05T07:46:51.726Z,20.01
2022-08-05T07:49:24.402Z,20.53
2022-08-05T07:51:55.347Z,20.45
2022-08-05T07:54:31.767Z,20.34
2022-08-05T07:57:22.579Z,20.46
2022-08-05T07:59:55.068Z,20.49
2022-08-05T08:02:30.803Z,20.57
2022-08-05T08:05:04.259Z,20.66
2022-08-05T08:07:39.459Z,20.49
2022-08-05T08:10:24.325Z,20.78
2022-08-05T08:12:58.494Z,20.88
2022-08-05T08:16:33.469Z,20.89
2022-08-05T08:18:21.025Z,20.75
2022-08-05T08:21:03.094Z,20.93
2022-08-05T08:24:01.457Z,20.74
2022-08-05T08:26:27.057Z,20.46
2022-08-05T08:29:02.243Z,20.45
2022-08-05T08:31:52.234Z,20.45
2022-08-05T08:34:30.157Z,20.46
2022-08-05T08:37:05.477Z,20.50
2022-08-05T08:39:37.607Z,20.46
2022-08-05T08:42:33.627Z,20.64
2022-08-05T08:45:25.162Z,20.56
2022-08-05T08:48:07.415Z,20.69
2022-08-05T08:51:03.334Z,20.73
2022-08-05T08:53:44.970Z,20.81
2022-08-05T08:56:15.228Z,21.05
2022-08-05T08:58:47.932Z,21.19
2022-08-05T09:01:19.669Z,21.05
2022-08-05T09:03:55.630Z,21.03
2022-08-05T09:06:30.907Z,21.05
2022-08-05T09:09:04.786Z,20.73
2022-08-05T09:11:53.760Z,21.17
2022-08-05T09:14:57.714Z,21.13
2022-08-05T09:17:40.891Z,21.14
2022-08-05T09:20:09.808Z,21.15
2022-08-05T09:23:19.810Z,21.23
2022-08-05T09:26:03.274Z,21.25
2022-08-05T09:28:35.926Z,20.96
2022-08-05T09:31:18.228Z,20.93
2022-08-05T09:34:01.804Z,20.86
2022-08-05T09:36:55.082Z,20.51
2022-08-05T09:39:44.971Z,20.74
2022-08-05T09:42:24.452Z,20.53
2022-08-05T09:45:17.260Z,20.82
2022-08-05T09:47:55.902Z,20.65
2022-08-05T09:50:44.086Z,20.60
2022-08-05T09:53:26.166Z,20.42
2022-08-05T09:56:13.402Z,20.80
2022-08-05T09:58:59.096Z,20.95
2022-08-05T10:01:32.578Z,21.12
2022-08-05T10:04:10.403Z,20.42
2022-08-05T10:06:55.059Z,20.79
2022-08-05T10:09:29.887Z,20.47
2022-08-05T10:12:30.530Z,20.85
2022-08-05T10:15:21.792Z,20.92
2022-08-05T10:18:16.926Z,21.16
2022-08-05T10:20:49.568Z,20.78
2022-08-05T10:23:55.591Z,20.71
2022-08-05T10:26:14.458Z,20.70
2022-08-05T10:28:46.582Z,21.01
2022-08-05T10:32:55.078Z,20.40
2022-08-05T10:34:10.804Z,20.72
2022-08-05T10:36:44.517Z,20.57
2022-08-05T10:39:25.170Z,20.21
2022-08-05T10:42:15.609Z,20.58
2022-08-05T10:44:49.594Z,20.31
2022-08-05T10:47:25.918Z,20.37
2022-08-05T10:50:20.268Z,20.44
2022-08-05T10:52:58.748Z,20.49
2022-08-05T10:56:03.832Z,20.35
2022-08-05T10:58:36.037Z,20.53
2022-08-05T11:01:15.129Z,20.18
2022-08-05T11:04:06.630Z,21.08
2022-08-05T11:06:39.077Z,21.06
2022-08-05T11:09:16.873Z,20.69
2022-08-05T11:11:52.725Z,21.38
2022-08-05T11:15:12.176Z,21.37
2022-08-05T11:18:07.343Z,21.36
2022-08-05T11:20:44.585Z,21.15
2022-08-05T11:24:03.783Z,21.19
2022-08-05T11:26:32.496Z,20.91
2022-08-05T11:29:13.805Z,21.13
2022-08-05T11:31:56.929Z,21.17
2022-08-05T11:34:51.393Z,21.31
2022-08-05T11:38:29.051Z,21.08
2022-08-05T11:41:35.103Z,21.12
2022-08-05T11:44:07.492Z,20.94
2022-08-05T11:47:10.224Z,20.89
2022-08-05T11:49:34.054Z,20.91
2022-08-05T11:52:11.084Z,20.63
2022-08-05T11:54:43.636Z,20.94
2022-08-05T11:57:25.467Z,20.86
2022-08-05T12:00:28.954Z,20.54
2022-08-05T12:03:01.089Z,20.63
2022-08-05T12:05:39.807Z,21.12
2022-08-05T12:08:11.748Z,21.28
2022-08-05T12:10:52.723Z,21.13
2022-08-05T12:13:48.048Z,21.29
2022-08-05T12:16:26.984Z,21.36
2022-08-05T12:18:57.249Z,21.55
2022-08-05T12:21:30.624Z,21.56
2022-08-05T12:24:04.855Z,21.66
2022-08-05T12:26:36.561Z,21.58
2022-08-05T12:29:15.883Z,21.37
2022-08-05T12:31:53.639Z,21.31
2022-08-05T12:34:28.443Z,21.40
2022-08-05T12:36:59.926Z,21.51
2022-08-05T12:39:34.470Z,21.61
2022-08-05T12:42:14.332Z,21.74
2022-08-05T12:44:48.625Z,22.16
2022-08-05T12:47:30.955Z,22.35
2022-08-05T12:50:06.231Z,22.42
2022-08-05T12:52:42.252Z,22.27
2022-08-05T12:55:23.619Z,22.33
2022-08-05T12:58:49.788Z,22.30
2022-08-05T13:02:02.287Z,22.24
2022-08-05T13:03:43.283Z,22.48
2022-08-05T13:06:19.954Z,22.70
2022-08-05T13:08:52.178Z,22.71
2022-08-05T13:11:46.969Z,22.79
2022-08-05T13:14:19.391Z,22.70
2022-08-05T13:16:56.420Z,22.84
2022-08-05T13:19:51.916Z,22.80
2022-08-05T13:22:29.277Z,22.73
2022-08-05T13:25:05.770Z,22.64
2022-08-05T13:27:41.513Z,22.99
2022-08-05T13:30:34.810Z,23.13
2022-08-05T13:33:06.545Z,23.13
2022-08-05T13:35:47.176Z,23.04
2022-08-05T13:38:30.296Z,23.13
2022-08-05T13:41:01.608Z,23.26
2022-08-05T13:43:45.446Z,23.35
2022-08-05T13:46:38.005Z,23.35
2022-08-05T13:49:16.039Z,23.33
2022-08-05T13:51:47.019Z,23.46
2022-08-05T13:54:21.178Z,23.58
2022-08-05T13:56:56.132Z,23.50
2022-08-05T13:59:27.001Z,23.41
2022-08-05T14:02:00.507Z,23.54
2022-08-05T14:04:50.085Z,23.65
2022-08-05T14:07:55.363Z,23.69
2022-08-05T14:10:18.849Z,23.65
2022-08-05T14:12:54.505Z,23.53
2022-08-05T14:16:06.161Z,23.38
2022-08-05T14:18:18.039Z,23.40
2022-08-05T14:20:52.921Z,23.35
2022-08-05T14:23:26.447Z,23.10
2022-08-05T14:25:59.723Z,23.14
2022-08-05T14:28:31.794Z,23.23
2022-08-05T14:31:02.496Z,23.14
2022-08-05T14:33:59.249Z,23.12
2022-08-05T14:36:26.101Z,23.10
2022-08-05T14:38:56.973Z,23.35
2022-08-05T14:41:27.641Z,23.48
2022-08-05T14:44:09.728Z,23.71
2022-08-05T14:46:48.814Z,23.75
2022-08-05T14:49:18.643Z,23.69
2022-08-05T14:51:52.208Z,23.92
2022-08-05T14:54:28.479Z,23.91
2022-08-05T14:57:05.124Z,23.95
2022-08-05T14:59:40.381Z,23.71
2022-08-05T15:02:15.748Z,23.90
2022-08-05T15:04:47.795Z,23.91
2022-08-05T15:08:11.432Z,23.55
2022-08-05T15:10:13.946Z,23.67
2022-08-05T15:13:00.350Z,23.84
2022-08-05T15:15:54.127Z,23.95
2022-08-05T15:18:25.098Z,24.06
2022-08-05T15:20:54.753Z,24.04
2022-08-05T15:23:27.044Z,24.17
2022-08-05T15:26:01.008Z,24.08
2022-08-05T15:28:32.777Z,24.32
2022-08-05T15:31:03.618Z,24.42
2022-08-05T15:34:05.867Z,24.39
2022-08-05T15:36:26.204Z,24.38
2022-08-05T15:40:58.793Z,24.29
2022-08-05T15:41:55.698Z,24.37
2022-08-05T15:44:27.602Z,24.58
2022-08-05T15:46:57.968Z,24.58
2022-08-05T15:49:48.298Z,24.57
2022-08-05T15:52:53.737Z,24.28
2022-08-05T15:55:16.616Z,24.25
2022-08-05T15:57:49.035Z,24.12
2022-08-05T16:00:26.443Z,24.04
2022-08-05T16:03:02.718Z,23.96
2022-08-05T16:05:32.984Z,24.05
2022-08-05T16:08:03.706Z,24.11
2022-08-05T16:10:37.479Z,24.13
2022-08-05T16:13:11.347Z,24.21
2022-08-05T16:15:41.128Z,24.04
2022-08-05T16:18:12.389Z,24.20
2022-08-05T16:20:44.133Z,24.07
2022-08-05T16:23:16.799Z,23.59
2022-08-05T16:25:49.913Z,23.58
2022-08-05T16:28:26.802Z,23.28
2022-08-05T16:30:58.647Z,23.07
2022-08-05T16:33:32.144Z,22.95
2022-08-05T16:36:13.145Z,22.91
2022-08-05T16:38:55.005Z,22.78
2022-08-05T16:42:27.781Z,22.92
2022-08-05T16:44:21.113Z,22.98
2022-08-05T16:46:56.337Z,22.94
2022-08-05T16:49:26.601Z,22.76
2022-08-05T16:51:59.035Z,22.68
2022-08-05T16:54:32.880Z,22.52
2022-08-05T16:57:14.873Z,22.60
2022-08-05T17:00:02.951Z,22.63
2022-08-05T17:02:38.470Z,22.46
2022-08-05T17:05:09.618Z,22.36
2022-08-05T17:07:44.380Z,22.32
2022-08-05T17:10:26.494Z,22.23
2022-08-05T17:13:02.823Z,22.07
2022-08-05T17:15:47.826Z,22.16
2022-08-05T17:18:19.168Z,21.91
2022-08-05T17:20:50.576Z,22.22
2022-08-05T17:24:05.229Z,22.04
2022-08-05T17:26:10.132Z,22.09
2022-08-05T17:28:44.112Z,22.00
2022-08-05T17:31:24.632Z,22.01
2022-08-05T17:34:06.912Z,21.94
2022-08-05T17:36:40.452Z,21.91
2022-08-05T17:39:24.494Z,21.72
2022-08-05T17:42:17.825Z,21.80
2022-08-05T17:44:53.866Z,21.73
2022-08-05T17:47:23.794Z,21.80
2022-08-05T17:50:03.650Z,21.83
2022-08-05T17:52:34.995Z,21.69
2022-08-05T17:55:27.208Z,21.63
2022-08-05T17:58:05.650Z,21.57
2022-08-05T18:00:40.911Z,21.45
2022-08-05T18:03:56.525Z,21.49
2022-08-05T18:06:11.863Z,21.30
2022-08-05T18:08:52.223Z,21.41
2022-08-05T18:11:32.873Z,21.43
2022-08-05T18:14:07.290Z,21.30
2022-08-05T18:16:51.293Z,21.21
2022-08-05T18:19:22.644Z,20.85
2022-08-05T18:22:08.226Z,20.88
2022-08-05T18:24:41.223Z,20.87
2022-08-05T18:27:12.325Z,20.94
2022-08-05T18:29:42.591Z,21.12
2022-08-05T18:32:28.353Z,21.24
2022-08-05T18:35:01.379Z,20.94
2022-08-05T18:37:34.592Z,21.06
2022-08-05T18:41:53.167Z,21.05
2022-08-05T18:43:03.857Z,20.99
2022-08-05T18:45:41.661Z,20.88
2022-08-05T18:48:30.906Z,20.98
2022-08-05T18:52:04.747Z,20.97
2022-08-05T18:54:09.728Z,20.93
2022-08-05T18:56:39.525Z,20.96
2022-08-05T18:59:41.858Z,20.97
2022-08-05T19:01:59.264Z,20.86
2022-08-05T19:04:37.457Z,20.84
2022-08-05T19:07:46.275Z,20.76
2022-08-05T19:10:18.949Z,20.77
2022-08-05T19:12:59.143Z,20.60
2022-08-05T19:15:57.036Z,20.59
2022-08-05T19:18:22.907Z,20.47
2022-08-05T19:20:56.538Z,20.33
2022-08-05T19:24:07.299Z,20.46
2022-08-05T19:26:22.485Z,20.45
2022-08-05T19:28:57.893Z,20.38
2022-08-05T19:31:30.825Z,20.31
2022-08-05T19:34:14.585Z,20.32
2022-08-05T19:36:51.307Z,20.31
2022-08-05T19:39:21.664Z,20.35
2022-08-05T19:42:07.671Z,20.30
2022-08-05T19:44:45.030Z,20.30
2022-08-05T19:47:16.649Z,20.12
2022-08-05T19:49:48.260Z,20.15
2022-08-05T19:52:31.043Z,20.14
2022-08-05T19:55:06.831Z,19.79
2022-08-05T19:58:06.734Z,20.07
2022-08-05T20:00:50.694Z,19.97
2022-08-05T20:03:24.031Z,19.96
2022-08-05T20:05:56.804Z,19.96
2022-08-05T20:08:31.316Z,19.93
2022-08-05T20:11:02.362Z,19.93
2022-08-05T20:13:58.291Z,19.99
2022-08-05T20:16:23.312Z,19.91
2022-08-05T20:18:55.223Z,19.90
2022-08-05T20:21:27.848Z,19.74
2022-08-05T20:24:06.680Z,19.75
2022-08-05T20:26:36.349Z,19.76
2022-08-05T20:29:07.783Z,19.74
2022-08-05T20:31:59.646Z,19.56
2022-08-05T20:34:29.851Z,19.67
2022-08-05T20:37:01.827Z,19.63
2022-08-05T20:39:36.374Z,19.58
2022-08-05T20:42:08.299Z,19.52
2022-08-05T20:44:41.531Z,19.47
2022-08-05T20:47:11.326Z,19.52
2022-08-05T20:49:41.096Z,19.45
2022-08-05T20:52:12.361Z,19.44
2022-08-05T20:55:15.988Z,19.34
2022-08-05T20:57:44.107Z,19.36
2022-08-05T21:00:40.030Z,19.34
2022-08-05T21:03:08.839Z,19.32
2022-08-05T21:05:54.412Z,19.29
2022-08-05T21:08:26.669Z,19.22
2022-08-05T21:11:10.315Z,19.27
2022-08-05T21:13:47.500Z,19.11
2022-08-05T21:16:30.153Z,19.03
2022-08-05T21:19:01.521Z,18.89
2022-08-05T21:21:39.078Z,19.02
2022-08-05T21:24:12.748Z,18.98
2022-08-05T21:26:57.983Z,18.96
2022-08-05T21:29:31.865Z,18.91
2022-08-05T21:32:03.091Z,18.89
2022-08-05T21:34:35.641Z,18.89
2022-08-05T21:37:08.226Z,18.64
2022-08-05T21:39:40.751Z,18.74
2022-08-05T21:42:43.802Z,18.71
2022-08-05T21:45:03.520Z,18.46
2022-08-05T21:47:56.348Z,18.46
2022-08-05T21:50:26.331Z,18.27
2022-08-05T21:52:58.819Z,18.38
2022-08-05T21:56:01.175Z,18.25
2022-08-05T21:58:24.888Z,18.21
2022-08-05T22:01:02.311Z,18.09
2022-08-05T22:03:48.588Z,18.20
2022-08-05T22:06:36.976Z,18.19
2022-08-05T22:09:14.025Z,18.09
2022-08-05T22:11:46.932Z,18.01
2022-08-05T22:14:34.667Z,18.12
2022-08-05T22:17:07.623Z,17.94
2022-08-05T22:20:00.696Z,17.95
2022-08-05T22:22:29.591Z,17.84
2022-08-05T22:25:17.807Z,17.87
2022-08-05T22:28:09.183Z,17.71
2022-08-05T22:30:56.693Z,17.76
2022-08-05T22:33:58.605Z,17.72
2022-08-05T22:36:18.714Z,17.68
2022-08-05T22:38:49.037Z,17.72
2022-08-05T22:42:05.401Z,17.71
2022-08-05T22:44:11.985Z,17.60
2022-08-05T22:46:45.182Z,17.55
2022-08-05T22:49:45.973Z,17.45
2022-08-05T22:52:12.529Z,17.39
2022-08-05T22:54:50.882Z,17.25
2022-08-05T22:57:20.576Z,17.24
2022-08-05T22:59:53.834Z,17.33
2022-08-05T23:02:29.363Z,17.34
2022-08-05T23:05:02.039Z,17.30
2022-08-05T23:07:44.709Z,17.25
2022-08-05T23:10:19.601Z,17.20
2022-08-05T23:12:51.629Z,17.06
2022-08-05T23:15:26.695Z,17.14
2022-08-05T23:18:00.970Z,16.98
2022-08-05T23:20:33.041Z,17.09
2022-08-05T23:23:06.020Z,17.05
2022-08-05T23:25:52.569Z,16.97
2022-08-05T23:28:28.685Z,16.66
2022-08-05T23:31:07.042Z,16.60
2022-08-05T23:34:03.805Z,16.80
2022-08-05T23:36:39.530Z,16.58
2022-08-05T23:39:17.500Z,16.77
2022-08-05T23:41:53.930Z,16.72
2022-08-05T23:44:28.010Z,16.66
2022-08-05T23:47:02.660Z,16.70
2022-08-05T23:49:47.465Z,16.65
2022-08-05T23:52:32.395Z,16.54
2022-08-05T23:55:09.229Z,16.55
2022-08-05T23:57:40.635Z,16.40
